Kezdőlap
METAR-TAF:

METAR-TAF

Repülőterek :

Kuopio, Finnország

földrajzi szélesség: 63-01N, földrajzi hosszúság: 027-48E, magasság: 98 m

Jelenlegi meteorológiai megfigyelések

A jelentés 25 perccel ezelõtt készült, 14:50 UTC
Nyugat-északnyugati szél 9 kt
Hőmérséklet -4°C
Páratartalom 80%
Légköri nyomás 998 hPa
Látótávolság 10 km, vagy több
felhőtlen 1500 m magasságban, és nincs gomolyfelhõ

METAR: EFKU 251450Z AUTO 29009KT CAVOK M04/M07 Q0998

Idő: 17:15 (15:15 UTC)

Előrejelzés

A jelentés 54 perccel ezelõtt készült, 14:21 UTC
Az előrejelzés 25-én 15 óra UTC és 26-én 15 óra UTC között érvényes
Nyugat-északnyugati szél 8 kt
Látótávolság 10 km, vagy több
Szórványos felhőzet 2000 lábon
25-én 21 óra UTC és 26-én 09 óra UTC között ideiglenes
Látótávolság: 4000 m
Szakadozott felhőzet 200 lábon
Párásság

TAF: EFKU 251421Z 2515/2615 29008KT 9999 SCT020 TEMPO 2521/2609 4000 BR BKN002

Meteorológiai megfigyelések és előrejelzések több, mint 4000 repülőtéren (METAR és TAF jelentéseket).

A térképen piros és sárga pontok jelzik az elérhető meteorológiai állomásokat.

Mozgassa az egeret a pont fölött, hogy megjelenjen az állomás neve.

Azután kattintson az időjárási megfigyelések és előrejelzések megtekintéséhez.

A térkép megváltoztatása: kattintson a fekete keresztel jelölt zöld gombra ráközelítéshez, a vonallal jelölt zöld gombra távolításhoz, vagy a zöld nyilakra a szomszédos térképek eléréséhez.


METAR-TAF: